San Diego, California
Traffic Map
Current Weather Conditions
San Diego, California
Few Clouds
Few Clouds
71°
Feels Like: 71°
Wind Chill: 71° Ceiling: Unl
Heat Index: 71° Visibility: 9mi
Dew Point: 60° Wind: 5mph
Humidity: 68% Direction: 180° (S)
Pressure: 29.83in Gusts: 0mph
Raw Report DataKSAN 011751Z 18004KT 9SM FEW015 22/16 A2983 RMK AO2 SLP102 T02170156 10217 20194 58001
Traffic Incident Summary
Active as of:
Severity:
Category:
InformationThere was an issue retrieving the traffic information for this location. Please try a different location or try again shortly.
Advertisements
Track Severe Weather on mobile